Date,TemperatureHighF,TemperatureAvgF,TemperatureLowF,DewpointHighF,DewpointAvgF,DewpointLowF,HumidityHigh,HumidityAvg,HumidityLow,PressureMaxIn,PressureMinIn,WindSpeedMaxMPH,WindSpeedAvgMPH,GustSpeedMaxMPH,PrecipitationSumIn
2013-1-1,31.6,26.8,21.8,29.8,20.7,14.5,93,78,68,30.08,29.95,6,0,6,0.00
2013-1-2,21.8,21.8,21.8,14.5,14.5,14.5,73,73,73,30.14,30.05,0,0,0,0.00
2013-1-3,29.7,25.1,20.6,21.6,17.5,11.2,77,72,61,30.16,30.05,13,1,13,0.00
2013-1-4,29.7,27.6,26.7,21.6,19.1,15.8,77,70,58,30.15,30.02,17,2,17,0.00
2013-1-5,35.8,30.3,26.7,24.5,20.5,16.5,76,67,62,30.29,30.03,13,1,13,0.00
2013-1-6,37.2,34.3,30.9,31.5,28.5,24.1,87,79,70,30.20,29.90,13,1,13,0.00
2013-1-7,36.9,31.9,29.0,28.5,25.6,22.8,88,78,61,30.40,30.18,12,1,12,0.00
2013-1-8,42.2,33.1,26.3,28.3,24.6,21.4,84,72,50,30.26,30.17,6,0,6,0.03
2013-1-9,46.7,39.5,30.6,35.9,30.7,26.8,86,71,56,30.43,30.08,19,1,19,0.14
2013-1-10,42.9,34.5,26.3,32.4,26.1,23.2,88,73,52,30.55,30.14,10,0,10,0.03
2013-1-11,57.2,49.0,42.1,52.1,42.7,25.8,95,80,51,30.14,29.76,17,1,17,0.53
2013-1-12,61.0,53.6,48.2,55.2,49.7,45.4,94,87,74,29.94,29.77,8,0,8,0.00
2013-1-13,62.3,49.7,36.2,58.5,47.0,34.9,96,90,81,29.98,29.62,14,1,14,0.34
2013-1-14,36.2,29.6,27.2,34.9,23.5,19.4,95,78,70,30.40,29.98,11,1,11,0.00
2013-1-15,30.7,28.5,26.4,23.1,20.4,17.6,76,71,65,30.39,30.08,7,0,7,0.00
2013-1-16,36.5,32.1,29.3,25.5,23.1,21.6,79,69,60,30.09,29.83,13,1,13,0.00
2013-1-17,36.5,33.3,24.7,29.3,24.5,14.1,79,70,59,30.24,29.95,17,1,17,0.00
2013-1-18,35.2,28.3,21.6,20.7,15.1,6.3,76,57,46,30.45,30.03,15,1,15,0.00
2013-1-19,51.9,44.4,35.2,30.0,25.4,20.7,56,47,41,30.03,29.62,24,3,24,0.00
2013-1-20,46.2,29.1,21.4,33.2,16.2,9.3,68,58,48,30.14,29.59,24,2,24,0.00
2013-1-21,23.5,19.0,15.4,14.1,9.2,2.6,80,66,42,30.11,29.92,13,1,13,0.00
2013-1-22,15.4,15.4,15.4,10.4,10.4,10.4,80,80,80,30.19,30.05,0,0,0,0.00
2013-1-23,17.3,15.7,15.4,10.4,8.3,4.2,80,72,58,30.19,29.98,7,0,7,0.00
2013-1-24,15.7,15.7,15.7,5.4,5.4,5.4,63,63,63,30.46,29.98,0,0,0,0.00
2013-1-25,0.0,0.0,0.0,0.0,0.0,0.0,0,0,100,30.42,29.94,0,0,0,0.00
2013-1-26,25.2,14.7,0.0,19.1,10.0,0.0,82,46,69,30.42,29.98,3,0,13,0.00
2013-1-27,32.9,26.7,21.6,24.6,17.0,13.7,83,67,53,30.49,30.19,11,0,11,0.00
2013-1-28,48.0,41.2,30.6,46.8,39.0,23.3,97,92,74,30.19,29.86,13,1,13,0.41
2013-1-29,60.5,51.2,38.8,54.7,48.8,37.8,98,92,78,29.99,29.52,10,1,10,0.15
2013-1-30,62.4,55.4,36.2,55.5,50.0,32.7,95,82,71,29.52,29.08,14,2,14,0.33
2013-1-31,36.2,26.2,19.4,32.5,17.4,7.9,87,69,56,29.84,29.21,20,3,20,0.00
2013-2-1,19.9,17.2,15.6,14.0,10.4,6.2,84,75,61,30.28,29.84,13,1,13,0.00
2013-2-2,25.3,19.6,15.6,20.1,13.2,7.3,86,76,69,30.26,29.93,2,0,2,0.19
2013-2-3,23.9,19.4,15.6,19.9,13.5,9.8,87,78,63,30.00,29.85,10,0,10,0.01
2013-2-4,28.8,22.2,17.0,21.3,16.5,9.3,88,78,67,30.02,29.85,6,0,6,0.04
2013-2-5,30.7,25.9,22.2,23.3,20.1,17.0,89,79,59,29.90,29.82,7,0,7,0.03
2013-2-6,29.0,24.5,15.7,25.1,16.0,10.6,89,71,54,30.31,29.90,10,0,10,0.00
2013-2-7,46.5,34.0,17.7,28.9,22.6,13.7,85,64,46,30.27,29.78,13,1,13,0.04
2013-2-8,42.1,31.7,25.7,36.1,27.0,20.2,92,83,67,30.24,29.66,20,3,20,0.17
2013-2-9,29.7,24.8,19.2,21.1,19.0,15.4,88,78,65,30.41,30.24,13,0,13,0.00
2013-2-10,49.2,37.3,20.6,35.4,21.2,16.7,88,54,32,30.29,29.71,16,2,16,0.03
2013-2-11,51.0,41.3,33.5,43.0,32.6,23.5,88,71,59,29.86,29.59,22,3,22,0.00
2013-2-12,36.6,31.8,25.0,25.4,23.2,20.3,89,71,60,30.04,29.86,12,1,12,0.00
2013-2-13,33.8,28.4,23.0,25.9,22.3,18.8,89,78,63,29.88,29.73,12,0,12,0.00
2013-2-14,41.2,34.3,24.8,35.1,29.0,21.8,90,81,68,29.83,29.71,14,1,14,0.00
2013-2-15,37.2,30.8,27.0,27.8,22.2,15.2,84,70,58,30.07,29.83,12,0,12,0.01
2013-2-16,28.8,23.6,16.9,20.0,16.8,11.2,88,76,52,30.06,29.94,2,0,11,0.00
2013-2-17,22.1,16.7,8.4,15.4,8.4,3.0,84,70,53,30.24,29.96,8,0,13,0.00
2013-2-18,46.2,28.6,7.2,30.9,16.4,2.5,84,62,45,30.24,29.65,19,2,19,0.11
2013-2-19,46.8,31.3,17.7,38.5,24.9,8.3,91,77,53,29.94,29.49,21,3,21,0.16
2013-2-20,22.4,19.8,17.2,14.9,11.2,6.3,88,69,57,30.20,29.94,16,2,16,0.00
2013-2-21,23.2,20.7,18.1,16.9,12.9,10.3,81,71,62,30.35,30.18,11,0,11,0.00
2013-2-22,37.9,30.5,20.2,34.6,25.3,13.2,88,81,69,30.28,29.87,14,1,14,0.12
2013-2-23,35.9,33.0,29.7,29.9,25.4,21.5,85,74,61,29.92,29.85,10,1,10,0.00
2013-2-24,35.2,30.7,26.9,24.8,21.8,18.7,77,69,59,30.11,29.85,12,1,12,0.00
2013-2-25,40.8,30.1,20.2,29.1,22.6,17.0,92,74,55,30.18,30.02,7,0,7,0.00
2013-2-26,39.1,33.4,23.9,35.8,28.5,19.8,91,82,58,30.06,29.43,17,2,17,0.53
2013-2-27,43.8,38.4,33.2,38.8,35.6,31.1,93,89,77,29.58,29.42,13,1,13,0.24
2013-2-28,35.2,33.0,30.6,32.4,29.8,26.6,93,88,84,29.85,29.53,14,1,14,0.04
2013-3-1,30.4,28.1,26.6,27.0,23.5,20.6,88,82,75,30.01,29.85,14,1,14,0.00
2013-3-2,28.5,26.4,23.9,23.3,21.8,18.3,87,83,75,29.99,29.95,11,0,11,0.01
2013-3-3,24.7,23.6,23.0,20.9,18.7,15.6,87,82,72,29.98,29.95,8,0,8,0.00
2013-3-4,32.9,23.8,13.5,30.5,16.7,9.0,100,75,55,30.19,30.02,2,0,13,0.00
2013-3-5,35.9,28.6,17.0,26.4,22.6,14.1,100,78,58,32.11,29.65,32,0,32,0.01
2013-3-6,41.5,34.0,29.1,31.4,28.1,25.9,91,79,64,30.14,29.65,7,0,7,0.05
2013-3-7,36.8,33.1,28.1,31.8,29.6,25.4,92,87,77,30.33,30.12,7,0,7,0.03
2013-3-8,36.0,28.8,21.3,29.7,24.7,19.1,93,85,72,30.44,30.33,3,0,6,0.02
2013-3-9,51.7,36.4,22.1,33.1,27.2,19.9,94,72,42,30.40,30.02,12,0,12,0.00
2013-3-10,70.6,58.3,48.5,39.0,33.4,28.2,55,40,27,30.02,29.76,14,1,14,0.00
2013-3-11,62.6,52.2,41.3,49.0,42.8,31.4,92,73,32,29.77,29.46,21,2,21,0.77
2013-3-12,41.3,36.2,31.8,34.7,29.6,25.4,90,77,67,29.93,29.69,14,1,14,0.00
2013-3-13,32.5,30.7,27.9,26.5,22.0,14.6,86,70,52,30.13,29.85,20,2,20,0.01
2013-3-14,36.7,29.8,26.2,22.3,17.3,13.5,80,60,50,30.21,30.07,13,2,17,0.00
2013-3-15,44.2,36.4,28.5,33.0,29.4,21.5,92,76,62,30.07,29.81,10,1,10,0.11
2013-3-16,34.7,31.7,29.4,32.9,29.0,24.3,95,90,81,29.98,29.64,6,0,7,0.19
2013-3-17,32.7,29.9,26.9,26.7,21.9,17.5,87,72,59,30.20,29.98,7,0,7,0.04
2013-3-18,45.4,35.4,26.6,43.8,30.5,16.8,94,83,66,30.15,29.51,17,2,17,0.21
2013-3-19,40.1,31.4,26.7,38.0,21.7,16.6,92,67,55,29.92,29.63,22,3,22,0.00
2013-3-20,31.5,28.3,23.8,20.4,16.9,10.1,76,62,51,29.92,29.85,12,1,12,0.00
2013-3-21,30.3,24.3,17.5,24.7,17.7,9.5,88,76,56,29.88,29.84,12,1,12,0.02
2013-3-22,36.0,29.1,26.1,24.2,20.9,18.1,88,72,57,29.98,29.88,12,1,12,0.00
2013-3-23,38.2,29.4,20.3,28.2,21.9,17.0,91,74,56,30.04,29.96,7,0,7,0.01
2013-3-24,34.9,30.9,23.9,26.1,22.7,18.8,86,72,54,29.99,29.50,10,0,10,0.00
2013-3-25,34.1,32.7,30.7,31.7,30.8,28.9,95,92,89,29.79,29.41,7,0,10,0.22
2013-3-26,41.9,36.4,32.4,31.4,29.9,28.1,93,78,60,30.06,29.79,13,1,13,0.14
2013-3-27,44.6,38.0,32.7,31.4,28.2,23.6,92,69,45,30.13,30.04,17,2,17,0.02
2013-3-28,44.5,39.0,34.6,30.3,27.9,25.8,72,64,54,30.22,30.11,12,1,12,0.00
2013-3-29,48.2,41.1,32.5,30.7,25.1,16.7,79,55,34,30.23,30.14,10,1,10,0.00
2013-3-30,58.0,42.3,30.4,29.4,24.0,18.6,61,50,27,30.18,29.91,10,0,10,0.00
2013-3-31,54.7,48.7,41.5,44.8,36.0,22.5,85,63,42,29.91,29.59,13,1,13,0.07
2013-4-1,47.7,37.9,31.8,40.3,22.5,10.6,87,55,32,30.04,29.59,16,2,16,0.01
2013-4-2,40.2,32.8,26.9,23.7,15.4,7.9,81,49,32,30.17,30.04,13,1,13,0.00
2013-4-3,36.3,31.8,24.2,21.6,15.0,8.1,65,50,35,30.41,30.17,14,1,14,0.00
2013-4-4,57.3,38.3,23.0,21.0,14.8,8.1,67,42,14,30.36,29.91,8,0,8,0.00
2013-4-5,43.6,37.6,29.3,32.8,24.5,17.0,79,59,43,30.18,29.87,10,0,11,0.00
2013-4-6,56.2,37.8,23.2,19.6,15.8,6.9,79,45,21,30.24,29.84,13,0,13,0.00
2013-4-7,71.6,56.8,43.3,46.2,39.5,12.8,71,54,19,29.96,29.68,18,3,21,0.00
2013-4-8,71.5,56.6,38.2,54.7,43.2,31.4,81,62,45,29.99,29.69,12,1,12,0.01
2013-4-9,78.8,58.0,44.6,55.9,44.9,33.8,87,64,36,30.03,29.76,18,0,18,0.00
2013-4-10,61.8,46.7,40.1,58.0,42.3,38.5,96,85,63,29.92,29.74,14,0,16,0.56
2013-4-11,43.6,41.1,38.3,43.1,39.9,37.3,98,95,91,29.88,29.56,11,0,11,0.16
2013-4-12,47.3,42.3,40.8,46.8,37.6,31.7,98,84,66,29.78,29.40,16,2,16,0.33
2013-4-13,44.8,41.0,37.9,38.6,33.3,26.9,87,74,60,29.97,29.78,17,2,17,0.02
2013-4-14,54.2,42.5,30.4,38.4,33.3,26.5,90,71,52,30.08,29.89,6,0,6,0.00
2013-4-15,73.0,61.7,49.9,52.2,45.0,35.4,68,55,43,29.95,29.85,19,1,19,0.00
2013-4-16,67.8,56.9,48.6,59.4,50.2,46.1,91,79,67,30.12,29.84,12,1,12,0.12
2013-4-17,54.8,48.8,42.1,46.1,39.4,32.0,95,72,47,30.25,29.98,10,0,10,0.00
2013-4-18,83.8,68.2,46.0,62.8,54.5,39.3,93,64,34,30.00,29.56,18,2,18,0.00
2013-4-19,70.6,52.4,40.2,59.6,42.1,28.0,92,69,51,29.79,29.27,21,3,21,0.18
2013-4-20,42.9,38.1,32.8,31.6,26.6,22.3,84,63,49,30.38,29.78,14,2,14,0.01
2013-4-21,45.2,38.7,30.7,32.1,26.4,22.0,77,62,45,30.57,30.38,11,0,11,0.00
2013-4-22,65.5,48.7,31.5,39.3,31.4,24.4,78,53,28,30.43,30.13,12,0,12,0.00
2013-4-23,74.4,60.7,46.4,50.4,35.7,25.2,70,40,27,30.14,29.77,13,1,13,0.03
2013-4-24,59.9,45.7,36.6,53.1,42.4,34.8,94,88,70,30.12,29.66,12,1,12,0.72
2013-4-25,53.5,41.4,30.6,42.8,33.9,28.6,93,76,46,30.30,30.12,13,1,13,0.05
2013-4-26,55.6,43.5,29.1,38.8,30.3,25.8,94,63,35,30.43,30.30,7,0,7,0.00
2013-4-27,69.6,51.1,34.9,39.1,34.0,29.2,89,57,26,30.33,30.03,9,0,9,0.00
2013-4-28,58.4,53.4,43.8,55.4,47.7,38.0,92,81,58,30.03,29.78,14,1,14,0.19
2013-4-29,67.4,59.8,53.5,57.2,52.9,48.6,94,79,57,29.91,29.78,9,0,9,0.16
2013-4-30,76.0,64.2,50.5,58.1,52.1,48.2,96,68,42,30.02,29.91,12,0,12,0.00
2013-5-1,81.8,69.2,57.6,58.6,52.1,47.2,74,56,37,30.16,30.02,13,1,13,0.00
2013-5-2,80.1,69.2,58.6,51.2,41.1,31.4,48,36,26,30.22,30.06,12,1,12,0.00
2013-5-3,78.3,68.9,58.4,46.6,37.7,29.0,51,33,17,30.10,29.99,14,2,14,0.00
2013-5-4,73.5,65.3,55.6,43.2,37.0,27.0,51,36,20,30.08,29.97,14,2,14,0.00
2013-5-5,74.2,64.2,56.3,45.3,37.8,24.2,53,39,21,30.02,29.91,14,1,14,0.00
2013-5-6,74.2,63.5,53.2,50.3,41.0,23.7,59,44,24,29.97,29.88,12,1,12,0.00
2013-5-7,72.0,63.1,56.5,56.8,51.4,48.1,79,66,53,29.95,29.89,8,0,8,0.00
2013-5-8,75.3,62.7,51.7,55.7,51.9,47.3,90,69,45,29.91,29.86,7,0,7,0.03
2013-5-9,76.0,65.8,55.1,58.4,47.8,31.0,96,59,21,29.91,29.84,7,0,7,0.01
2013-5-10,75.3,64.8,49.6,62.7,56.3,37.6,96,76,36,29.85,29.67,12,0,12,0.71
2013-5-11,55.9,48.8,44.1,48.7,45.1,33.9,96,88,68,29.85,29.73,16,1,16,0.04
2013-5-12,50.5,44.2,38.0,36.8,31.7,24.1,85,63,40,30.03,29.83,16,2,16,0.03
2013-5-13,48.5,42.7,34.4,31.4,26.5,21.1,79,53,36,30.14,30.01,13,1,13,0.00
2013-5-14,68.1,54.4,37.2,44.7,35.3,25.6,71,49,33,30.10,29.71,17,1,17,0.00
2013-5-15,82.8,70.5,58.4,60.3,51.4,40.7,80,53,26,29.74,29.59,16,1,17,0.01
2013-5-16,78.5,67.7,52.5,52.0,45.3,32.4,85,49,20,29.89,29.68,9,0,9,0.00
2013-5-17,71.6,61.0,50.5,54.5,45.4,38.3,86,58,31,30.06,29.89,7,0,7,0.00
2013-5-18,79.6,64.2,52.8,55.3,48.7,42.6,74,58,32,30.06,29.94,7,0,7,0.00
2013-5-19,84.9,72.2,57.6,65.2,60.2,50.7,82,67,46,29.97,29.85,12,0,12,0.00
2013-5-20,86.5,76.5,65.6,70.8,65.9,60.7,88,71,56,29.88,29.76,11,0,11,0.00
2013-5-21,87.0,77.7,70.8,68.3,63.9,57.6,87,65,39,29.79,29.66,12,0,12,0.00
2013-5-22,87.2,75.9,66.4,65.2,61.6,58.6,91,63,41,29.72,29.59,11,0,11,0.14
2013-5-23,75.3,59.0,42.3,64.1,54.8,40.2,96,87,59,30.00,29.63,16,1,16,0.20
2013-5-24,48.5,43.2,36.8,40.2,35.2,32.0,91,74,58,30.29,30.00,16,1,16,0.02
2013-5-25,60.9,48.8,34.4,41.7,35.7,31.2,92,63,38,30.33,30.22,13,1,13,0.00
2013-5-26,66.0,51.9,35.6,43.4,36.0,28.4,95,60,27,30.28,30.17,11,0,11,0.01
2013-5-27,60.5,52.6,39.1,50.8,43.0,34.7,92,72,40,30.20,29.97,8,0,8,0.15
2013-5-28,83.8,68.6,54.1,68.7,60.0,50.6,96,77,52,29.97,29.79,11,0,11,0.26
2013-5-29,87.6,77.5,68.9,67.1,62.3,57.9,78,60,45,29.95,29.81,17,0,17,0.00
2013-5-30,91.2,77.9,64.5,68.9,62.4,58.3,85,61,37,30.03,29.92,11,0,11,0.00
2013-5-31,91.0,75.4,67.1,69.5,64.2,59.4,95,70,43,29.96,29.83,14,0,14,0.45
2013-6-1,84.7,73.2,64.2,70.1,66.4,62.1,97,81,56,29.85,29.64,8,0,8,1.29
2013-6-2,78.5,69.0,60.5,65.6,60.4,53.3,97,76,49,29.86,29.64,14,1,14,0.11
2013-6-3,62.9,56.8,48.2,53.2,45.2,38.8,80,66,45,30.03,29.85,10,0,10,0.00
2013-6-4,67.6,56.9,43.9,54.6,44.4,37.4,90,66,37,30.13,30.03,8,0,8,0.00
2013-6-5,73.5,61.3,47.7,55.6,48.1,42.1,89,64,43,30.09,29.87,10,0,10,0.00
2013-6-6,60.9,57.8,55.3,58.9,54.1,49.3,96,88,69,29.87,29.75,6,0,6,0.27
2013-6-7,58.4,56.5,55.0,56.4,54.4,53.0,97,93,85,29.83,29.77,5,0,6,0.02
2013-6-8,71.1,61.1,54.5,57.7,53.4,48.8,91,77,53,30.03,29.82,6,0,6,0.00
2013-6-9,82.6,69.2,53.2,61.7,56.1,48.8,88,65,43,30.05,29.88,11,1,11,0.01
2013-6-10,73.2,69.3,65.2,69.8,64.2,58.9,92,84,66,29.87,29.66,8,0,8,0.30
2013-6-11,79.8,70.6,64.8,65.3,62.6,61.0,92,77,55,29.81,29.68,12,1,12,0.00
2013-6-12,79.9,71.9,66.4,67.7,64.3,61.2,88,77,63,29.83,29.58,12,0,12,0.00
2013-6-13,72.1,65.8,60.1,66.4,60.0,54.4,96,83,59,29.80,29.40,17,1,17,0.55
2013-6-14,72.8,63.0,54.1,59.4,55.0,50.0,90,76,53,30.01,29.79,11,0,11,0.00
2013-6-15,83.0,66.1,49.2,60.9,54.2,47.0,96,70,36,30.04,29.88,8,0,8,0.01
2013-6-16,83.6,72.7,65.6,68.7,63.4,57.6,92,74,55,29.88,29.75,12,0,12,0.13
2013-6-17,84.7,73.0,61.8,71.3,62.4,57.6,95,71,42,29.85,29.78,6,0,6,0.00
2013-6-18,75.4,67.0,58.7,64.7,57.7,52.1,85,72,57,29.95,29.77,13,0,13,0.00
2013-6-19,73.9,63.8,51.7,58.0,51.6,46.2,93,67,43,30.10,29.95,6,0,6,0.00
2013-6-20,81.8,66.7,49.5,59.6,49.7,44.3,92,59,30,30.15,30.09,6,0,6,0.00
2013-6-21,90.1,74.5,56.5,64.3,56.6,49.4,80,56,35,30.15,30.02,7,0,7,0.00
2013-6-22,92.9,79.3,64.7,73.0,65.1,57.2,80,63,47,30.06,29.92,6,0,6,0.00
2013-6-23,94.3,81.6,68.6,70.2,65.8,59.0,88,61,33,30.01,29.90,10,0,10,0.00
2013-6-24,92.1,79.8,67.1,69.0,64.8,60.5,84,62,37,30.01,29.86,10,0,10,0.00
2013-6-25,91.6,76.7,66.9,75.1,67.6,62.7,96,75,48,29.91,29.74,24,0,24,1.38
2013-6-26,87.0,74.3,67.1,71.5,67.8,65.8,97,82,54,29.82,29.69,7,0,7,0.99
2013-6-27,81.8,72.1,67.9,72.0,67.7,65.1,100,87,59,29.69,29.55,7,0,7,0.47
2013-6-28,79.8,70.1,63.7,69.8,63.7,57.5,96,81,57,29.55,29.43,11,0,11,0.02
2013-6-29,75.8,67.9,63.4,67.7,63.3,59.9,94,86,69,29.61,29.44,6,0,6,0.76
2013-6-30,75.3,69.3,66.0,65.4,62.3,60.1,88,79,64,29.81,29.61,7,0,7,0.03
2013-7-1,72.7,67.9,63.4,66.4,63.7,61.3,94,87,78,29.92,29.77,10,0,10,0.64
2013-7-2,77.2,68.7,62.6,67.9,63.4,60.5,94,84,67,29.97,29.87,4,0,7,0.07
2013-7-3,87.4,74.1,63.4,73.0,66.9,61.1,97,80,52,30.02,29.95,8,0,8,0.01
2013-7-4,82.0,75.2,69.9,71.5,67.8,64.9,93,78,61,30.07,30.01,6,0,6,0.05
2013-7-5,82.2,73.8,69.6,69.9,67.5,65.1,94,81,60,30.05,29.99,8,0,8,0.23
2013-7-6,87.8,75.5,67.6,72.5,68.3,64.2,93,80,53,30.06,29.90,5,0,8,0.24
2013-7-7,81.4,73.7,67.6,69.0,66.5,62.6,94,79,54,29.99,29.89,8,0,8,0.01
2013-7-8,88.0,74.0,64.8,72.8,67.0,61.4,93,80,57,30.00,29.92,10,0,10,0.62
2013-7-9,87.4,75.6,69.1,76.2,71.3,67.2,97,87,65,29.95,29.83,10,0,10,0.54
2013-7-10,87.0,74.1,68.1,78.2,71.5,65.7,97,92,69,29.85,29.68,13,0,19,1.65
2013-7-11,76.6,69.4,63.3,67.0,61.4,57.2,92,77,52,29.96,29.81,2,0,12,0.01
2013-7-12,78.8,71.7,60.5,67.9,63.0,56.5,94,75,60,30.02,29.95,11,0,11,0.00
2013-7-13,69.3,68.2,66.8,62.9,60.7,59.3,87,77,71,30.03,30.02,6,0,6,0.00
2013-7-14,88.6,79.9,66.6,73.6,69.1,64.1,93,71,55,30.16,30.11,6,0,7,0.00
2013-7-15,91.4,81.4,72.3,74.4,70.7,68.2,90,71,52,30.22,30.15,6,0,6,0.00
2013-7-16,89.5,82.0,73.0,76.9,72.6,69.4,92,74,60,30.21,30.15,8,0,8,0.00
2013-7-17,93.4,83.2,74.4,75.2,71.9,68.6,92,70,47,30.19,30.06,8,0,8,0.00
2013-7-18,93.8,84.1,74.9,75.8,72.9,69.6,91,71,48,30.06,29.89,7,0,7,0.00
2013-7-19,93.6,83.6,75.3,76.0,72.5,68.1,86,70,50,29.90,29.70,13,0,13,0.00
2013-7-20,80.9,73.9,68.1,72.4,68.9,65.9,97,85,71,29.82,29.65,10,0,10,0.49
2013-7-21,83.6,74.7,67.1,72.5,67.2,60.7,96,78,62,29.88,29.81,7,0,7,0.00
2013-7-22,77.4,69.4,63.5,72.5,65.6,60.2,93,88,76,29.88,29.68,2,0,2,0.44
2013-7-23,84.5,72.7,62.4,73.2,66.5,60.0,97,82,55,29.72,29.56,12,0,13,0.14
2013-7-24,70.3,65.9,56.0,60.9,54.0,50.6,85,66,55,29.95,29.72,10,0,11,0.00
2013-7-25,77.2,65.5,54.8,57.3,52.0,46.6,90,64,39,30.02,29.95,11,0,11,0.00
2013-7-26,81.8,66.1,52.9,61.5,55.4,50.3,94,71,43,30.02,29.86,1,0,6,0.00
2013-7-27,73.7,67.4,64.7,65.6,61.9,57.4,92,83,73,29.87,29.69,7,0,7,0.19
2013-7-28,72.5,64.5,53.3,58.9,54.1,50.0,92,70,47,29.93,29.76,6,0,10,0.05
2013-7-29,71.3,63.0,53.5,59.8,55.0,50.9,92,76,54,30.11,29.93,8,0,8,0.00
2013-7-30,77.6,66.0,54.2,63.1,57.1,51.9,97,75,52,30.15,30.06,7,0,7,0.00
2013-7-31,82.0,71.6,60.1,65.3,61.3,55.6,89,71,52,30.07,29.82,6,0,8,0.00
2013-8-1,79.8,70.8,62.9,65.6,62.2,56.2,92,75,49,29.83,29.75,8,0,11,0.06
2013-8-2,75.8,67.2,58.4,64.8,59.8,56.1,93,78,55,29.89,29.78,7,0,7,0.48
2013-8-3,78.8,69.9,60.7,67.7,61.2,51.4,96,76,42,29.92,29.82,9,0,9,0.00
2013-8-4,73.2,65.2,58.3,60.5,55.6,48.7,93,72,56,30.06,29.91,13,0,13,0.16
2013-8-5,74.4,65.2,54.5,57.8,53.7,47.8,91,67,48,30.05,29.92,3,0,3,0.00
2013-8-6,81.4,70.4,59.5,62.8,58.1,54.5,86,67,45,29.93,29.84,10,0,10,0.00
2013-8-7,79.6,71.4,62.6,70.9,65.1,58.0,92,81,70,29.90,29.77,6,0,6,0.37
2013-8-8,79.4,73.3,69.9,72.4,68.6,63.7,93,86,76,29.88,29.81,6,0,6,0.02
2013-8-9,76.3,69.6,62.0,66.3,60.2,46.2,94,74,40,29.93,29.82,8,0,8,0.12
2013-8-10,77.9,68.8,59.8,63.1,58.2,54.7,92,70,54,30.03,29.93,2,0,5,0.00
2013-8-11,82.2,70.3,59.8,63.0,57.5,54.4,90,66,41,30.05,29.96,6,0,7,0.00
2013-8-12,81.6,71.2,62.6,67.1,62.9,58.0,90,76,55,29.98,29.73,6,0,6,0.00
2013-8-13,72.0,65.7,60.2,66.4,57.3,45.8,94,75,56,29.92,29.70,11,1,16,0.02
2013-8-14,70.1,62.3,55.4,55.8,50.9,45.7,84,67,55,30.09,29.91,12,1,12,0.00
2013-8-15,75.1,61.9,49.1,55.2,50.6,46.7,95,69,41,30.12,30.04,7,0,7,0.00
2013-8-16,78.5,63.9,50.1,58.3,52.6,47.9,95,70,40,30.11,30.05,7,0,7,0.00
2013-8-17,79.8,66.8,52.2,64.4,56.4,50.0,97,72,43,30.17,30.10,7,0,7,0.00
2013-8-18,79.0,67.0,54.5,63.6,58.4,51.6,94,75,50,30.14,30.04,5,0,5,0.00
2013-8-19,81.8,69.4,60.2,66.4,60.5,56.1,95,76,44,30.06,29.98,6,0,6,0.00
2013-8-20,84.9,71.5,59.6,65.4,60.1,56.0,92,70,43,30.08,30.00,7,0,7,0.00
2013-8-21,89.5,74.4,60.2,66.1,62.1,57.3,94,68,37,30.09,29.95,6,0,6,0.00
2013-8-22,84.1,74.1,66.0,72.2,66.7,62.6,92,79,57,29.98,29.89,7,0,7,0.12
2013-8-23,80.9,72.8,59.8,68.5,63.1,54.8,91,73,50,30.10,29.91,6,0,6,0.02
2013-8-24,81.4,67.5,53.5,61.2,55.0,49.7,97,68,36,30.23,30.10,10,0,10,0.00
2013-8-25,87.0,70.8,54.7,63.2,57.8,52.7,97,67,36,30.26,30.12,7,0,7,0.00
2013-8-26,87.8,76.2,65.3,67.0,62.4,57.6,78,63,46,30.12,29.90,5,0,8,0.00
2013-8-27,81.2,76.3,72.0,74.3,70.1,66.3,96,82,67,29.94,29.79,9,0,9,0.66
2013-8-28,75.8,74.2,72.8,71.9,71.1,70.0,92,90,87,29.81,29.71,6,0,6,0.06
2013-8-29,80.8,74.8,68.0,71.5,69.0,63.7,94,83,69,29.97,29.88,1,0,10,0.00
2013-8-30,88.3,75.8,64.0,70.8,66.3,61.6,97,75,50,29.92,29.69,1,0,7,0.00
2013-8-31,83.0,76.3,69.6,71.7,69.0,66.2,93,79,60,29.74,29.62,7,0,7,0.03
2013-9-1,82.8,75.5,69.5,72.5,69.4,66.2,92,82,65,29.73,29.65,4,0,5,0.01
2013-9-2,78.5,72.2,68.3,70.6,65.9,58.0,94,81,60,29.78,29.64,12,0,12,0.01
2013-9-3,68.3,63.4,55.3,58.9,53.8,51.2,88,71,61,29.96,29.78,7,0,10,0.00
2013-9-4,75.3,58.6,53.2,60.1,53.7,50.7,94,85,57,30.04,29.96,6,0,6,0.00
2013-9-5,70.0,65.2,56.6,63.6,52.9,40.1,85,65,46,30.17,29.96,6,0,11,0.00
2013-9-6,56.6,53.1,50.4,43.9,42.9,41.2,77,68,58,30.18,30.16,0,0,0,0.00
2013-9-7,81.6,73.9,48.4,67.2,60.7,44.7,88,65,45,30.18,29.82,6,0,6,0.00
2013-9-8,75.1,68.6,56.0,67.2,60.2,49.2,91,75,57,29.99,29.81,11,0,11,0.00
2013-9-9,81.6,67.7,51.1,69.1,59.9,47.1,93,77,62,29.99,29.87,6,0,6,0.00
2013-9-10,97.1,83.5,74.0,73.0,69.0,64.0,83,64,36,29.96,29.86,6,0,6,0.00
2013-9-11,95.1,82.0,73.2,72.6,69.0,64.1,84,67,38,30.00,29.85,6,0,6,0.00
2013-9-12,77.0,70.4,61.0,69.4,64.3,57.8,91,82,66,29.88,29.73,13,0,13,0.18
2013-9-13,61.2,58.3,54.7,58.6,49.8,40.5,91,74,58,30.01,29.80,10,1,14,0.05
2013-9-14,65.0,56.1,47.9,48.7,44.1,39.4,89,65,50,30.10,30.01,8,0,8,0.00
2013-9-15,70.9,58.5,45.8,56.7,49.7,43.9,95,75,47,30.10,29.98,6,0,6,0.05
2013-9-16,65.8,60.0,51.7,57.3,52.5,44.6,93,77,63,30.26,30.02,10,0,10,0.00
2013-9-17,69.9,56.3,41.9,52.0,45.3,36.7,92,69,35,30.34,30.17,10,0,10,0.00
2013-9-18,75.8,63.3,50.8,58.3,51.2,42.6,84,66,45,30.17,29.99,7,0,7,0.00
2013-9-19,79.9,69.2,60.1,66.4,62.7,56.2,93,81,61,30.01,29.89,8,0,8,0.00
2013-9-20,86.3,73.6,66.0,70.6,66.7,62.5,93,80,56,29.90,29.66,12,0,12,0.76
2013-9-21,69.3,63.6,58.3,67.2,60.5,50.3,97,90,70,29.74,29.57,13,0,13,0.71
2013-9-22,60.4,56.4,54.2,52.1,46.1,42.7,75,68,60,29.98,29.74,11,1,11,0.00
2013-9-23,62.0,54.3,43.6,47.0,44.5,40.3,89,70,55,30.10,29.98,6,0,6,0.00
2013-9-24,66.1,50.7,37.9,51.9,43.1,35.8,95,78,51,30.10,29.96,9,0,9,0.00
2013-9-25,71.5,55.9,42.2,56.6,48.7,40.0,96,78,55,29.93,29.84,5,0,6,0.00
2013-9-26,71.8,57.3,44.2,56.1,47.8,41.7,95,73,45,30.05,29.89,6,0,6,0.00
2013-9-27,71.8,58.1,46.0,57.2,50.8,43.8,95,78,51,30.15,30.05,7,0,7,0.00
2013-9-28,77.2,62.7,48.3,57.6,52.0,46.1,95,71,41,30.15,30.00,10,0,10,0.00
2013-9-29,75.4,64.5,56.5,60.6,56.2,51.5,90,75,58,30.00,29.89,10,0,10,0.03
2013-9-30,66.0,62.6,58.1,63.4,59.8,55.7,92,91,87,29.94,29.87,4,0,4,0.22
2013-10-1,78.1,64.7,55.0,65.5,58.0,53.3,96,81,54,29.98,29.88,5,0,5,0.00
2013-10-2,75.6,65.6,57.5,65.4,59.3,52.9,91,81,67,30.00,29.91,7,0,7,0.00
2013-10-3,79.8,69.4,57.5,67.9,62.4,54.0,91,79,63,29.99,29.89,7,0,7,0.01
2013-10-4,78.5,70.6,65.2,69.5,64.9,62.6,92,83,64,29.96,29.91,8,0,8,0.04
2013-10-5,76.8,69.1,65.2,69.7,65.1,61.5,93,88,68,29.97,29.85,6,0,6,0.70
2013-10-6,78.3,70.6,56.2,67.9,64.3,54.0,95,82,62,29.83,29.58,14,0,14,0.80
2013-10-7,59.9,53.4,44.3,54.2,46.8,42.1,95,79,56,30.06,29.64,13,0,13,0.54
2013-10-8,66.4,54.2,43.2,53.4,45.7,40.8,94,75,45,30.23,30.06,7,0,7,0.00
2013-10-9,69.1,54.1,41.2,52.4,44.2,37.9,95,72,36,30.26,30.14,7,0,7,0.00
2013-10-10,64.5,52.4,40.1,50.7,43.8,37.1,94,74,43,30.18,30.04,5,0,5,0.00
2013-10-11,68.1,54.6,41.9,57.0,48.9,40.3,96,82,52,30.08,30.00,3,0,6,0.00
2013-10-12,74.2,60.7,47.4,61.8,53.9,45.2,94,80,55,30.05,29.99,7,0,7,0.00
2013-10-13,67.1,61.8,49.5,61.8,55.8,46.8,91,81,65,30.23,30.02,9,0,9,0.00
2013-10-14,64.8,55.8,45.8,52.7,47.0,40.8,94,73,55,30.29,30.19,11,0,11,0.00
2013-10-15,63.9,54.5,40.6,59.0,50.6,38.1,97,87,79,30.19,29.84,10,0,10,0.10
2013-10-16,67.9,60.1,45.7,64.2,56.4,41.8,96,88,70,29.85,29.72,11,0,11,0.54
2013-10-17,59.5,48.8,40.9,50.3,44.9,39.0,95,87,63,29.85,29.71,10,0,10,0.12
2013-10-18,63.8,52.1,41.3,46.4,43.8,38.7,93,74,51,29.90,29.80,6,0,10,0.00
2013-10-19,51.6,45.1,39.6,44.2,41.6,37.8,94,88,73,29.84,29.69,3,0,8,0.32
2013-10-20,59.9,47.0,36.6,42.8,39.2,35.0,95,77,46,29.90,29.84,11,0,11,0.00
2013-10-21,65.3,53.8,46.4,49.7,43.2,38.8,92,69,45,29.89,29.74,9,0,9,0.12
2013-10-22,49.8,43.0,36.0,46.9,33.1,29.0,92,69,49,29.91,29.78,8,0,8,0.05
2013-10-23,45.4,40.2,36.3,40.2,34.2,31.0,93,79,59,29.87,29.73,13,0,13,0.11
2013-10-24,47.4,38.1,33.5,36.4,32.5,30.3,92,81,57,30.09,29.86,12,0,12,0.41
2013-10-25,48.0,38.8,33.4,38.3,32.9,27.6,95,81,48,30.29,30.09,8,0,8,0.14
2013-10-26,46.7,40.9,34.4,39.3,30.7,26.5,92,68,52,30.15,29.79,11,0,11,0.02
2013-10-27,51.0,40.4,31.8,40.3,34.0,29.8,95,80,53,30.04,29.92,6,0,6,0.04
2013-10-28,54.5,41.8,30.6,43.0,36.1,28.3,94,81,61,30.29,30.02,6,0,6,0.00
2013-10-29,54.7,42.1,30.7,41.7,35.6,28.7,95,79,49,30.35,30.17,6,0,6,0.00
2013-10-30,64.1,46.7,36.0,52.6,41.1,33.3,93,82,55,30.17,29.93,10,0,10,0.00
2013-10-31,65.5,60.7,58.7,58.3,57.1,52.9,93,88,73,29.93,29.18,12,1,12,0.61
2013-11-1,60.5,55.9,45.4,58.2,52.2,40.9,93,88,77,29.63,29.13,8,1,21,0.31
2013-11-2,48.9,45.4,42.3,45.2,42.1,37.7,92,88,82,29.97,29.59,8,0,8,0.32
2013-11-3,47.0,41.4,32.9,38.4,33.6,24.9,84,74,61,30.42,29.97,9,0,9,0.02
2013-11-4,48.2,39.1,31.3,28.9,24.1,21.7,73,56,35,30.47,30.31,12,1,12,0.00
2013-11-5,60.1,50.7,39.9,45.0,37.6,28.5,73,61,51,30.35,30.18,5,0,7,0.00
2013-11-6,64.8,55.8,47.4,56.0,44.7,33.5,93,68,51,30.23,29.82,11,1,14,0.10
2013-11-7,57.3,43.4,40.1,45.1,39.8,34.5,94,87,78,30.06,29.82,14,1,14,0.01
2013-11-9,57.0,54.7,52.2,40.4,39.2,37.5,63,56,49,29.85,29.80,13,2,13,0.40
2013-11-10,51.9,44.2,33.7,39.3,32.5,27.3,78,64,53,30.23,29.85,11,1,11,0.02
2013-11-11,48.5,38.5,29.8,38.8,31.6,25.9,93,77,50,30.22,29.97,11,0,11,0.41
2013-11-12,35.2,31.7,29.1,28.0,22.6,16.1,93,70,51,30.45,30.19,13,1,13,0.01
2013-11-13,38.0,31.8,26.3,22.8,19.9,16.5,74,61,48,30.50,30.22,13,1,13,0.02
2013-11-14,51.6,38.2,27.9,23.7,20.4,18.0,70,50,29,30.22,30.02,11,0,11,0.12
2013-11-15,51.6,44.2,36.0,30.4,24.6,20.2,66,46,33,30.06,30.00,7,0,9,0.02
2013-11-16,61.3,49.3,37.5,50.1,41.7,29.4,88,75,59,30.11,29.81,11,1,13,0.00
2013-11-17,64.2,59.7,51.4,56.4,52.7,39.5,91,78,63,29.81,29.32,25,2,25,0.54
2013-11-18,51.4,43.2,36.0,40.2,32.9,23.9,77,67,59,30.06,29.49,16,3,21,0.00
2013-11-19,39.5,34.5,24.5,25.4,23.3,19.9,85,64,54,30.38,30.06,12,0,12,0.00
2013-11-20,47.4,34.9,20.8,27.2,17.7,12.9,92,56,25,30.42,30.24,18,1,18,0.00
2013-11-21,44.6,41.8,40.3,41.2,23.9,14.8,88,51,35,30.30,30.14,12,1,12,0.10
2013-11-22,48.5,43.5,35.3,47.4,40.6,26.1,96,90,68,30.28,30.07,18,1,18,0.22
2013-11-23,35.5,29.7,20.8,27.2,18.5,3.3,84,63,40,30.41,30.19,20,2,20,0.00
2013-11-24,24.1,22.1,20.2,13.4,8.1,2.8,71,55,45,30.54,30.40,19,2,19,0.00
2013-11-25,34.7,26.6,18.3,20.7,14.1,11.3,77,60,43,30.45,30.11,14,1,14,0.00
2013-11-26,35.9,33.2,31.2,30.1,26.5,15.6,91,77,45,30.12,29.80,12,0,12,0.00
2013-11-27,34.4,28.6,25.1,29.7,19.3,12.0,85,68,55,30.12,29.76,20,2,20,0.00
2013-11-28,30.4,25.7,20.5,20.3,16.4,11.7,83,68,57,30.39,30.12,8,0,10,0.00
2013-11-29,34.7,27.9,23.3,23.6,19.9,15.5,82,72,58,30.61,30.39,7,0,7,0.02
2013-11-30,41.5,32.6,26.7,26.1,22.5,17.8,78,66,53,30.56,30.10,12,0,12,0.00
2013-12-1,44.1,35.0,31.2,31.7,28.0,25.2,86,76,60,30.10,29.91,1,0,3,0.02
2013-12-2,40.1,36.5,30.1,34.0,31.2,25.9,88,81,71,29.91,29.82,7,0,7,0.00
2013-12-3,48.9,39.5,28.7,39.7,32.8,25.1,90,77,64,29.86,29.78,6,0,6,0.00
2013-12-4,59.8,51.5,40.9,49.4,43.6,36.5,88,75,66,29.86,29.65,13,1,13,0.00
2013-12-5,61.5,49.8,32.8,54.3,42.2,28.1,88,75,64,30.07,29.63,13,1,13,0.01
2013-12-6,34.1,30.9,26.9,30.2,25.4,21.2,91,80,65,30.31,30.05,8,0,10,0.00
2013-12-7,27.2,23.9,20.2,23.6,15.1,11.6,87,69,59,30.57,30.30,7,1,11,0.00
2013-12-8,29.4,24.7,17.3,25.7,16.3,11.1,86,70,56,30.56,29.97,12,0,12,0.00
2013-12-9,33.7,30.7,24.8,31.2,25.0,15.4,92,79,67,30.10,29.87,16,2,16,0.00
2013-12-10,27.2,22.8,19.7,15.4,11.1,5.1,70,61,39,30.22,29.95,21,2,21,0.00
2013-12-11,25.7,20.7,16.9,19.8,13.8,6.5,88,74,62,30.40,30.21,13,1,13,0.00
2013-12-12,18.4,15.2,7.4,7.2,2.9,-0.9,76,58,42,30.44,30.21,13,1,14,0.00
2013-12-13,31.3,24.2,16.9,18.9,12.9,3.5,76,62,54,30.24,30.16,8,0,8,0.00
2013-12-14,32.7,28.8,25.1,30.7,25.3,18.5,93,87,69,30.20,29.62,6,0,6,0.00
2013-12-15,32.7,22.0,12.6,31.2,17.5,6.5,94,83,72,30.02,29.64,12,0,12,0.00
2013-12-16,22.5,17.0,10.2,18.9,9.8,4.9,86,73,59,30.17,29.96,11,0,11,0.00
2013-12-17,29.1,25.2,21.0,24.5,20.5,16.9,90,82,71,30.01,29.87,11,1,11,0.00
2013-12-18,29.4,25.7,22.9,22.0,18.8,14.6,85,75,64,30.12,29.92,8,1,12,0.00
2013-12-19,45.7,38.5,28.5,34.2,28.3,17.3,81,67,56,29.97,29.87,12,1,12,0.63
2013-12-20,53.9,45.5,40.5,52.1,42.2,33.6,95,88,71,29.87,29.70,7,0,7,0.46
2013-12-21,56.3,44.4,36.3,54.0,42.9,35.3,98,94,91,29.77,29.41,11,0,11,1.97
2013-12-22,58.0,47.2,35.5,55.8,44.3,34.7,99,90,74,29.92,29.39,20,2,20,0.73
2013-12-23,38.9,32.8,27.3,37.0,26.6,17.0,93,78,62,30.27,29.92,11,1,11,0.02
2013-12-24,27.3,19.0,14.1,19.8,12.3,7.6,85,75,61,30.52,30.24,13,1,13,0.00
2013-12-25,27.9,20.8,9.0,22.5,12.7,4.3,86,71,57,30.49,30.12,14,0,14,0.00
2013-12-26,31.8,28.0,22.4,26.6,20.8,15.1,88,75,60,30.30,30.04,7,1,18,0.00
2013-12-27,41.4,35.0,25.6,29.9,25.8,19.1,78,69,63,30.30,30.11,7,0,10,0.04
2013-12-28,52.5,43.7,36.9,34.1,30.6,28.1,72,60,44,30.11,29.91,14,1,14,0.02
2013-12-29,43.5,39.1,26.3,37.7,30.8,23.3,91,73,55,29.91,29.64,11,1,11,0.04
2013-12-30,26.6,21.6,18.4,23.9,15.9,10.1,90,79,66,30.23,29.91,11,0,11,0.00
2013-12-31,22.4,19.4,17.3,17.7,12.7,7.8,85,75,60,30.31,30.03,16,1,16,0.00
2014-1-1,26.3,21.7,18.9,20.1,17.1,15.3,87,82,75,30.32,30.10,5,0,5,0.00
2014-1-2,23.2,19.0,12.8,19.4,15.3,4.3,89,85,68,30.11,29.85,7,1,13,0.00